createdAt,value
2022-08-17T00:02:26.182Z,62.72
2022-08-17T00:05:33.377Z,62.93
2022-08-17T00:08:38.048Z,63.11
2022-08-17T00:12:35.068Z,63.24
2022-08-17T00:15:10.458Z,63.15
2022-08-17T00:19:01.610Z,63.27
2022-08-17T00:22:32.060Z,63.15
2022-08-17T00:25:08.176Z,63.40
2022-08-17T00:28:12.454Z,63.64
2022-08-17T00:31:15.577Z,63.56
2022-08-17T00:34:19.102Z,63.85
2022-08-17T00:37:23.139Z,64.13
2022-08-17T00:40:25.927Z,64.35
2022-08-17T00:43:36.046Z,64.24
2022-08-17T00:46:42.662Z,64.24
2022-08-17T00:49:45.409Z,64.49
2022-08-17T00:52:55.608Z,64.28
2022-08-17T00:55:59.054Z,64.78
2022-08-17T00:59:04.566Z,64.83
2022-08-17T01:02:09.716Z,64.58
2022-08-17T01:05:18.547Z,64.79
2022-08-17T01:08:26.545Z,64.89
2022-08-17T01:11:31.837Z,64.84
2022-08-17T01:14:34.556Z,65.02
2022-08-17T01:17:37.382Z,64.95
2022-08-17T01:20:48.054Z,65.37
2022-08-17T01:23:52.853Z,65.36
2022-08-17T01:26:56.706Z,65.47
2022-08-17T01:30:04.001Z,65.53
2022-08-17T01:33:06.761Z,65.50
2022-08-17T01:36:10.130Z,65.85
2022-08-17T01:39:32.684Z,65.50
2022-08-17T01:42:41.560Z,66.00
2022-08-17T01:45:48.514Z,66.15
2022-08-17T01:49:08.556Z,66.38
2022-08-17T01:52:13.068Z,67.03
2022-08-17T01:55:27.091Z,68.18
2022-08-17T01:58:30.488Z,68.84
2022-08-17T02:01:34.925Z,68.63
2022-08-17T02:04:37.702Z,69.08
2022-08-17T02:07:59.955Z,69.36
2022-08-17T02:11:11.276Z,69.36
2022-08-17T02:14:15.204Z,69.09
2022-08-17T02:17:18.411Z,68.82
2022-08-17T02:20:41.579Z,68.77
2022-08-17T02:23:50.101Z,68.63
2022-08-17T02:26:54.225Z,68.79
2022-08-17T02:29:57.881Z,69.00
2022-08-17T02:33:04.147Z,68.65
2022-08-17T02:36:09.373Z,68.97
2022-08-17T02:39:13.354Z,68.73
2022-08-17T02:42:17.902Z,69.02
2022-08-17T02:45:24.129Z,68.84
2022-08-17T02:48:30.423Z,69.09
2022-08-17T02:51:35.350Z,69.52
2022-08-17T02:54:40.210Z,69.26
2022-08-17T02:57:47.038Z,69.61
2022-08-17T03:00:50.515Z,69.75
2022-08-17T03:03:53.269Z,69.69
2022-08-17T03:06:56.167Z,69.88
2022-08-17T03:09:59.784Z,69.73
2022-08-17T03:13:04.459Z,70.01
2022-08-17T03:16:09.102Z,69.76
2022-08-17T03:19:12.299Z,69.90
2022-08-17T03:22:35.458Z,69.80
2022-08-17T03:25:39.833Z,69.85
2022-08-17T03:28:47.480Z,69.94
2022-08-17T03:31:51.349Z,70.04
2022-08-17T03:34:59.910Z,70.23
2022-08-17T03:38:02.748Z,70.36
2022-08-17T03:41:07.581Z,70.26
2022-08-17T03:44:11.776Z,70.29
2022-08-17T03:47:32.334Z,70.38
2022-08-17T03:50:58.013Z,70.18
2022-08-17T03:54:18.465Z,70.13
2022-08-17T03:57:21.618Z,70.29
2022-08-17T04:00:27.730Z,70.73
2022-08-17T04:03:30.479Z,70.91
2022-08-17T04:06:33.182Z,70.68
2022-08-17T04:09:36.915Z,70.73
2022-08-17T04:12:46.013Z,70.71
2022-08-17T04:15:50.300Z,70.75
2022-08-17T04:18:54.322Z,70.69
2022-08-17T04:21:57.751Z,70.75
2022-08-17T04:25:01.465Z,70.97
2022-08-17T04:28:07.660Z,71.16
2022-08-17T04:31:45.646Z,71.76
2022-08-17T04:34:48.909Z,71.91
2022-08-17T04:37:52.509Z,72.93
2022-08-17T04:41:14.667Z,74.03
2022-08-17T04:44:28.320Z,75.23
2022-08-17T04:47:41.446Z,77.07
2022-08-17T04:50:48.130Z,77.49
2022-08-17T04:53:54.544Z,77.21
2022-08-17T04:56:57.795Z,77.32
2022-08-17T05:00:01.096Z,77.33
2022-08-17T05:03:07.721Z,77.48
2022-08-17T05:06:10.448Z,77.26
2022-08-17T05:09:13.814Z,77.46
2022-08-17T05:12:16.955Z,76.65
2022-08-17T05:15:20.127Z,77.42
2022-08-17T05:18:27.153Z,77.34
2022-08-17T05:21:30.698Z,77.16
2022-08-17T05:24:42.467Z,77.06
2022-08-17T05:27:52.369Z,76.91
2022-08-17T05:30:58.152Z,76.08
2022-08-17T05:34:02.290Z,75.60
2022-08-17T05:37:05.246Z,74.34
2022-08-17T05:40:09.927Z,72.69
2022-08-17T05:43:15.632Z,70.88
2022-08-17T05:46:24.037Z,69.62
2022-08-17T05:49:30.555Z,68.86
2022-08-17T05:52:41.339Z,68.78
2022-08-17T05:55:53.166Z,69.27
2022-08-17T05:59:03.619Z,68.79
2022-08-17T06:02:17.158Z,65.80
2022-08-17T06:05:50.434Z,62.93
2022-08-17T06:09:03.113Z,60.83
2022-08-17T06:12:22.608Z,59.73
2022-08-17T06:15:32.171Z,58.21
2022-08-17T06:18:42.357Z,57.47
2022-08-17T06:21:50.376Z,56.85
2022-08-17T06:24:57.558Z,56.33
2022-08-17T06:28:06.083Z,55.24
2022-08-17T06:31:16.638Z,53.98
2022-08-17T06:34:22.047Z,52.56
2022-08-17T06:37:52.511Z,51.15
2022-08-17T06:41:05.406Z,50.19
2022-08-17T06:44:43.312Z,49.98
2022-08-17T06:47:47.407Z,51.17
2022-08-17T06:50:54.609Z,52.23
2022-08-17T06:54:06.477Z,52.36
2022-08-17T06:57:19.046Z,53.11
2022-08-17T07:00:24.406Z,54.04
2022-08-17T07:03:35.760Z,55.58
2022-08-17T07:06:44.018Z,56.60
2022-08-17T07:09:48.171Z,57.62
2022-08-17T07:12:55.561Z,57.93
2022-08-17T07:16:07.726Z,57.93
2022-08-17T07:19:11.280Z,56.98
2022-08-17T07:22:24.141Z,54.98
2022-08-17T07:25:30.658Z,52.69
2022-08-17T07:28:34.754Z,51.06
2022-08-17T07:31:37.796Z,49.81
2022-08-17T07:35:11.131Z,48.63
2022-08-17T07:38:25.147Z,48.15
2022-08-17T07:41:53.505Z,47.56
2022-08-17T07:45:24.199Z,47.06
2022-08-17T07:48:27.255Z,47.30
2022-08-17T07:51:33.828Z,48.61
2022-08-17T07:54:39.126Z,48.12
2022-08-17T07:57:43.303Z,48.31
2022-08-17T08:00:46.802Z,49.71
2022-08-17T08:03:52.400Z,50.66
2022-08-17T08:06:59.546Z,50.86
2022-08-17T08:10:09.443Z,48.99
2022-08-17T08:13:22.669Z,47.54
2022-08-17T08:16:29.272Z,47.82
2022-08-17T08:19:33.076Z,48.04
2022-08-17T08:22:46.665Z,47.71
2022-08-17T08:26:00.504Z,47.98
2022-08-17T08:29:14.165Z,47.53
2022-08-17T08:32:21.166Z,47.58
2022-08-17T08:35:32.430Z,47.12
2022-08-17T08:38:43.631Z,46.38
2022-08-17T08:41:56.596Z,47.71
2022-08-17T08:45:09.792Z,47.46
2022-08-17T08:48:53.067Z,48.18
2022-08-17T08:51:55.462Z,48.40
2022-08-17T08:55:07.756Z,48.12
2022-08-17T08:58:31.313Z,46.98
2022-08-17T09:01:59.906Z,46.12
2022-08-17T09:05:15.888Z,45.93
2022-08-17T09:08:27.947Z,45.50
2022-08-17T09:12:01.952Z,45.11
2022-08-17T09:15:12.358Z,45.12
2022-08-17T09:19:00.150Z,44.89
2022-08-17T09:21:53.430Z,44.61
2022-08-17T09:25:03.960Z,44.62
2022-08-17T09:28:09.074Z,43.98
2022-08-17T09:31:18.063Z,44.01
2022-08-17T09:34:33.239Z,43.90
2022-08-17T09:37:41.034Z,44.14
2022-08-17T09:40:52.534Z,44.60
2022-08-17T09:44:02.316Z,44.17
2022-08-17T09:47:11.005Z,44.45
2022-08-17T09:51:03.791Z,45.06
2022-08-17T09:53:45.004Z,45.42
2022-08-17T09:57:11.719Z,46.12
2022-08-17T10:00:25.389Z,46.69
2022-08-17T10:03:42.044Z,46.85
2022-08-17T10:06:53.349Z,49.04
2022-08-17T10:10:04.451Z,50.51
2022-08-17T10:13:18.736Z,53.36
2022-08-17T10:16:27.385Z,53.74
2022-08-17T10:19:36.918Z,54.63
2022-08-17T10:23:06.063Z,54.58
2022-08-17T10:26:14.696Z,54.66
2022-08-17T10:29:23.875Z,55.08
2022-08-17T10:32:33.837Z,56.21
2022-08-17T10:35:45.424Z,57.88
2022-08-17T10:38:59.641Z,60.86
2022-08-17T10:42:30.783Z,61.14
2022-08-17T10:45:38.836Z,61.91
2022-08-17T10:48:42.715Z,62.99
2022-08-17T10:51:54.856Z,63.76
2022-08-17T10:55:16.316Z,64.57
2022-08-17T10:58:24.455Z,65.23
2022-08-17T11:02:05.258Z,65.67
2022-08-17T11:05:20.613Z,67.76
2022-08-17T11:08:50.778Z,68.04
2022-08-17T11:12:09.625Z,69.46
2022-08-17T11:15:25.740Z,69.42
2022-08-17T11:18:44.736Z,69.50
2022-08-17T11:22:07.920Z,68.37
2022-08-17T11:25:16.261Z,68.03
2022-08-17T11:28:24.727Z,68.32
2022-08-17T11:31:38.403Z,68.35
2022-08-17T11:34:44.571Z,68.69
2022-08-17T11:37:58.994Z,69.25
2022-08-17T11:41:22.319Z,69.57
2022-08-17T11:44:38.528Z,69.34
2022-08-17T11:48:27.247Z,69.49
2022-08-17T11:52:04.563Z,70.48
2022-08-17T11:55:34.175Z,70.71
2022-08-17T11:58:42.130Z,70.75
2022-08-17T12:01:57.127Z,71.46
2022-08-17T12:05:27.366Z,70.74
2022-08-17T12:08:32.620Z,70.69
2022-08-17T12:11:55.623Z,70.20
2022-08-17T12:15:11.124Z,69.88
2022-08-17T12:18:21.921Z,69.10
2022-08-17T12:21:38.669Z,68.07
2022-08-17T12:24:55.301Z,66.89
2022-08-17T12:28:04.609Z,65.80
2022-08-17T12:31:16.410Z,64.05
2022-08-17T12:34:22.945Z,62.46
2022-08-17T12:37:29.842Z,59.35
2022-08-17T12:40:33.953Z,56.24
2022-08-17T12:43:36.677Z,54.31
2022-08-17T12:46:52.525Z,53.45
2022-08-17T12:50:28.319Z,53.48
2022-08-17T12:53:35.158Z,52.70
2022-08-17T12:56:38.125Z,51.37
2022-08-17T12:59:43.402Z,49.97
2022-08-17T13:02:50.269Z,49.93
2022-08-17T13:06:02.736Z,49.92
2022-08-17T13:09:14.266Z,50.14
2022-08-17T13:12:28.291Z,50.41
2022-08-17T13:15:36.165Z,49.61
2022-08-17T13:18:43.024Z,49.12
2022-08-17T13:21:49.064Z,48.80
2022-08-17T13:24:55.433Z,48.56
2022-08-17T13:27:58.817Z,48.26
2022-08-17T13:31:32.952Z,48.49
2022-08-17T13:34:59.588Z,47.61
2022-08-17T13:38:10.282Z,48.17
2022-08-17T13:41:33.594Z,48.69
2022-08-17T13:44:39.941Z,48.26
2022-08-17T13:47:43.432Z,48.49
2022-08-17T13:50:49.670Z,47.93
2022-08-17T13:53:57.839Z,47.09
2022-08-17T13:57:03.727Z,46.92
2022-08-17T14:00:17.143Z,45.56
2022-08-17T14:03:20.705Z,46.04
2022-08-17T14:06:51.630Z,45.94
2022-08-17T14:09:54.258Z,46.20
2022-08-17T14:12:57.812Z,45.43
2022-08-17T14:16:02.443Z,45.40
2022-08-17T14:19:05.935Z,45.72
2022-08-17T14:22:15.286Z,46.56
2022-08-17T14:25:23.183Z,46.09
2022-08-17T14:28:26.452Z,46.16
2022-08-17T14:31:35.370Z,45.17
2022-08-17T14:34:40.042Z,44.75
2022-08-17T14:37:44.943Z,44.59
2022-08-17T14:40:49.854Z,43.64
2022-08-17T14:43:53.611Z,44.18
2022-08-17T14:46:56.306Z,43.47
2022-08-17T14:53:23.378Z,43.30
2022-08-17T14:56:27.835Z,42.78
2022-08-17T14:59:36.770Z,43.28
2022-08-17T15:02:54.151Z,43.72
2022-08-17T15:05:56.866Z,43.23
2022-08-17T15:08:59.615Z,43.15
2022-08-17T15:12:06.456Z,42.69
2022-08-17T15:15:11.307Z,42.09
2022-08-17T15:18:14.087Z,41.62
2022-08-17T15:21:18.976Z,41.65
2022-08-17T15:24:21.874Z,42.09
2022-08-17T15:27:32.481Z,41.83
2022-08-17T15:30:35.995Z,41.66
2022-08-17T15:33:38.775Z,42.04
2022-08-17T15:36:45.483Z,41.99
2022-08-17T15:39:52.656Z,42.14
2022-08-17T15:42:57.866Z,42.23
2022-08-17T15:46:02.829Z,42.90
2022-08-17T15:49:05.603Z,43.54
2022-08-17T15:52:17.494Z,43.33
2022-08-17T15:55:24.182Z,43.18
2022-08-17T15:58:33.340Z,42.86
2022-08-17T16:03:01.742Z,43.46
2022-08-17T16:05:03.970Z,43.72
2022-08-17T16:08:12.594Z,44.29
2022-08-17T16:11:19.569Z,43.43
2022-08-17T16:14:24.159Z,43.66
2022-08-17T16:17:39.681Z,43.52
2022-08-17T16:20:43.514Z,44.32
2022-08-17T16:23:46.697Z,44.24
2022-08-17T16:26:49.415Z,44.34
2022-08-17T16:29:55.481Z,45.04
2022-08-17T16:33:00.406Z,45.90
2022-08-17T16:36:05.470Z,45.74
2022-08-17T16:39:08.441Z,45.75
2022-08-17T16:42:24.492Z,46.04
2022-08-17T16:45:36.975Z,46.73
2022-08-17T16:48:39.854Z,46.25
2022-08-17T16:51:42.702Z,46.15
2022-08-17T16:54:46.867Z,46.40
2022-08-17T16:57:50.575Z,46.46
2022-08-17T17:01:00.021Z,46.62
2022-08-17T17:04:06.048Z,46.61
2022-08-17T17:07:21.891Z,46.50
2022-08-17T17:10:29.891Z,47.49
2022-08-17T17:13:38.422Z,47.93
2022-08-17T17:16:46.292Z,47.74
2022-08-17T17:19:55.824Z,47.65
2022-08-17T17:23:05.021Z,47.84
2022-08-17T17:26:24.990Z,48.05
2022-08-17T17:29:47.134Z,48.37
2022-08-17T17:32:56.905Z,48.98
2022-08-17T17:36:02.206Z,49.10
2022-08-17T17:39:09.937Z,49.05
2022-08-17T17:42:16.709Z,49.35
2022-08-17T17:45:26.319Z,49.76
2022-08-17T17:48:30.756Z,51.20
2022-08-17T17:52:07.744Z,52.39
2022-08-17T17:55:19.330Z,52.64
2022-08-17T17:58:37.704Z,53.11
2022-08-17T18:01:47.812Z,53.54
2022-08-17T18:05:01.950Z,53.97
2022-08-17T18:08:14.863Z,54.58
2022-08-17T18:11:43.240Z,54.61
2022-08-17T18:15:06.405Z,54.36
2022-08-17T18:18:37.502Z,54.99
2022-08-17T18:21:44.623Z,55.75
2022-08-17T18:24:54.009Z,56.56
2022-08-17T18:27:56.796Z,57.00
2022-08-17T18:31:13.089Z,56.75
2022-08-17T18:34:45.846Z,56.89
2022-08-17T18:37:50.221Z,56.79
2022-08-17T18:41:02.947Z,56.74
2022-08-17T18:44:24.816Z,56.80
2022-08-17T18:47:30.486Z,56.89
2022-08-17T18:50:39.565Z,56.99
2022-08-17T18:53:43.650Z,57.43
2022-08-17T18:56:51.939Z,57.34
2022-08-17T18:59:54.941Z,57.95
2022-08-17T19:03:03.100Z,58.25
2022-08-17T19:06:22.798Z,58.49
2022-08-17T19:09:35.195Z,58.70
2022-08-17T19:12:43.107Z,59.24
2022-08-17T19:16:07.758Z,58.71
2022-08-17T19:19:20.628Z,58.29
2022-08-17T19:22:28.479Z,58.28
2022-08-17T19:25:37.243Z,58.22
2022-08-17T19:28:48.530Z,58.33
2022-08-17T19:31:55.503Z,58.63
2022-08-17T19:35:03.036Z,59.05
2022-08-17T19:38:12.806Z,59.74
2022-08-17T19:41:25.663Z,60.70
2022-08-17T19:44:50.461Z,61.38
2022-08-17T19:48:05.108Z,61.86
2022-08-17T19:51:14.723Z,62.13
2022-08-17T19:54:26.807Z,62.26
2022-08-17T19:57:42.388Z,62.29
2022-08-17T20:00:51.486Z,62.48
2022-08-17T20:03:59.177Z,62.69
2022-08-17T20:07:07.013Z,62.93
2022-08-17T20:10:19.779Z,63.04
2022-08-17T20:13:36.360Z,63.21
2022-08-17T20:16:39.224Z,62.96
2022-08-17T20:19:52.050Z,62.32
2022-08-17T20:23:03.794Z,61.96
2022-08-17T20:26:19.161Z,61.52
2022-08-17T20:29:37.013Z,61.59
2022-08-17T20:32:53.075Z,61.73
2022-08-17T20:36:04.719Z,61.56
2022-08-17T20:39:31.242Z,61.39
2022-08-17T20:42:38.840Z,61.51
2022-08-17T20:46:22.698Z,61.08
2022-08-17T20:49:29.927Z,61.04
2022-08-17T20:52:46.652Z,61.15
2022-08-17T20:55:55.545Z,61.32
2022-08-17T20:59:00.615Z,61.25
2022-08-17T21:02:18.471Z,61.25
2022-08-17T21:05:34.482Z,61.24
2022-08-17T21:08:45.692Z,61.89
2022-08-17T21:12:04.119Z,61.69
2022-08-17T21:15:13.689Z,62.01
2022-08-17T21:18:29.655Z,61.78
2022-08-17T21:21:46.591Z,62.23
2022-08-17T21:24:58.965Z,62.29
2022-08-17T21:28:13.335Z,62.40
2022-08-17T21:31:34.435Z,62.42
2022-08-17T21:34:42.431Z,62.76
2022-08-17T21:37:46.971Z,62.75
2022-08-17T21:40:52.700Z,62.71
2022-08-17T21:44:03.081Z,62.90
2022-08-17T21:47:21.511Z,62.64
2022-08-17T21:50:26.447Z,63.01
2022-08-17T21:53:39.541Z,62.89
2022-08-17T21:56:47.057Z,63.35
2022-08-17T21:59:54.530Z,63.31
2022-08-17T22:03:01.094Z,63.40
2022-08-17T22:06:23.980Z,63.30
2022-08-17T22:09:29.999Z,63.61
2022-08-17T22:12:35.090Z,63.63
2022-08-17T22:15:39.938Z,63.84
2022-08-17T22:18:44.722Z,64.18
2022-08-17T22:21:48.808Z,64.43
2022-08-17T22:24:57.208Z,64.40
2022-08-17T22:28:02.581Z,64.80
2022-08-17T22:31:06.700Z,64.63
2022-08-17T22:34:14.871Z,64.81
2022-08-17T22:37:28.950Z,64.75
2022-08-17T22:40:34.974Z,65.07
2022-08-17T22:43:41.522Z,65.04
2022-08-17T22:46:55.490Z,65.03
2022-08-17T22:50:01.234Z,65.62
2022-08-17T22:53:33.883Z,65.55
2022-08-17T22:56:55.616Z,65.71
2022-08-17T22:59:58.952Z,66.03
2022-08-17T23:03:09.175Z,65.90
2022-08-17T23:06:12.651Z,66.31
2022-08-17T23:09:16.972Z,66.22
2022-08-17T23:12:26.393Z,66.22
2022-08-17T23:15:34.230Z,66.31
2022-08-17T23:18:37.487Z,66.42
2022-08-17T23:21:40.704Z,66.71
2022-08-17T23:24:49.266Z,66.61
2022-08-17T23:27:52.173Z,66.86
2022-08-17T23:30:55.168Z,66.72
2022-08-17T23:33:59.183Z,67.14
2022-08-17T23:37:02.517Z,67.00
2022-08-17T23:40:08.423Z,66.93
2022-08-17T23:43:24.287Z,67.20
2022-08-17T23:46:28.224Z,67.03
2022-08-17T23:49:31.434Z,66.92
2022-08-17T23:52:36.869Z,66.71
2022-08-17T23:55:41.007Z,66.83
2022-08-17T23:58:44.889Z,66.60
